sensor_id;sensor_type;location;lat;lon;timestamp;P1;durP1;ratioP1;P2;durP2;ratioP2
62056;SDS011;48016;50.284;18.860;2023-09-18T00:00:53;11.90;;;9.30;;
62056;SDS011;48016;50.284;18.860;2023-09-18T00:03:37;10.60;;;9.20;;
62056;SDS011;48016;50.284;18.860;2023-09-18T00:06:04;10.30;;;9.00;;
62056;SDS011;48016;50.284;18.860;2023-09-18T00:08:31;13.10;;;9.90;;
62056;SDS011;48016;50.284;18.860;2023-09-18T00:10:58;11.10;;;9.00;;
62056;SDS011;48016;50.284;18.860;2023-09-18T00:13:26;12.50;;;8.90;;
62056;SDS011;48016;50.284;18.860;2023-09-18T00:15:56;11.10;;;9.40;;
62056;SDS011;48016;50.284;18.860;2023-09-18T00:18:25;11.00;;;9.50;;
62056;SDS011;48016;50.284;18.860;2023-09-18T00:20:53;10.20;;;8.80;;
62056;SDS011;48016;50.284;18.860;2023-09-18T00:23:20;11.00;;;9.20;;
62056;SDS011;48016;50.284;18.860;2023-09-18T00:25:47;10.50;;;9.20;;
62056;SDS011;48016;50.284;18.860;2023-09-18T00:28:13;11.70;;;9.70;;
62056;SDS011;48016;50.284;18.860;2023-09-18T00:30:46;12.50;;;9.60;;
62056;SDS011;48016;50.284;18.860;2023-09-18T00:33:16;11.10;;;9.60;;
62056;SDS011;48016;50.284;18.860;2023-09-18T00:35:48;10.90;;;9.80;;
62056;SDS011;48016;50.284;18.860;2023-09-18T00:38:16;13.50;;;9.90;;
62056;SDS011;48016;50.284;18.860;2023-09-18T00:43:10;13.20;;;9.80;;
62056;SDS011;48016;50.284;18.860;2023-09-18T00:45:41;11.70;;;9.90;;
62056;SDS011;48016;50.284;18.860;2023-09-18T00:48:10;11.50;;;9.60;;
62056;SDS011;48016;50.284;18.860;2023-09-18T00:50:38;12.90;;;9.80;;
62056;SDS011;48016;50.284;18.860;2023-09-18T00:53:07;13.00;;;10.20;;
62056;SDS011;48016;50.284;18.860;2023-09-18T00:55:36;15.10;;;10.00;;
62056;SDS011;48016;50.284;18.860;2023-09-18T00:58:05;11.70;;;9.80;;
62056;SDS011;48016;50.284;18.860;2023-09-18T01:00:32;12.40;;;9.60;;
62056;SDS011;48016;50.284;18.860;2023-09-18T01:03:00;11.60;;;9.00;;
62056;SDS011;48016;50.284;18.860;2023-09-18T01:05:33;12.50;;;9.60;;
62056;SDS011;48016;50.284;18.860;2023-09-18T01:08:00;12.00;;;9.90;;
62056;SDS011;48016;50.284;18.860;2023-09-18T01:10:32;12.20;;;9.70;;
62056;SDS011;48016;50.284;18.860;2023-09-18T01:15:43;12.20;;;9.30;;
62056;SDS011;48016;50.284;18.860;2023-09-18T01:18:18;11.70;;;9.40;;
62056;SDS011;48016;50.284;18.860;2023-09-18T01:20:45;11.30;;;9.70;;
62056;SDS011;48016;50.284;18.860;2023-09-18T01:23:12;10.60;;;9.50;;
62056;SDS011;48016;50.284;18.860;2023-09-18T01:25:38;11.50;;;9.00;;
62056;SDS011;48016;50.284;18.860;2023-09-18T01:28:05;11.00;;;8.50;;
62056;SDS011;48016;50.284;18.860;2023-09-18T01:30:32;10.80;;;9.00;;
62056;SDS011;48016;50.284;18.860;2023-09-18T01:33:00;10.80;;;8.70;;
62056;SDS011;48016;50.284;18.860;2023-09-18T01:35:28;10.80;;;8.30;;
62056;SDS011;48016;50.284;18.860;2023-09-18T01:37:56;12.20;;;9.90;;
62056;SDS011;48016;50.284;18.860;2023-09-18T01:40:25;10.60;;;9.00;;
62056;SDS011;48016;50.284;18.860;2023-09-18T01:42:53;10.10;;;8.40;;
62056;SDS011;48016;50.284;18.860;2023-09-18T01:45:20;11.90;;;8.90;;
62056;SDS011;48016;50.284;18.860;2023-09-18T01:47:46;12.80;;;9.70;;
62056;SDS011;48016;50.284;18.860;2023-09-18T01:50:13;12.60;;;9.30;;
62056;SDS011;48016;50.284;18.860;2023-09-18T01:52:40;10.70;;;8.70;;
62056;SDS011;48016;50.284;18.860;2023-09-18T01:55:06;11.10;;;9.00;;
62056;SDS011;48016;50.284;18.860;2023-09-18T01:57:34;10.90;;;8.90;;
62056;SDS011;48016;50.284;18.860;2023-09-18T02:00:00;11.00;;;8.70;;
62056;SDS011;48016;50.284;18.860;2023-09-18T02:02:27;11.40;;;9.50;;
62056;SDS011;48016;50.284;18.860;2023-09-18T02:04:54;11.20;;;9.40;;
62056;SDS011;48016;50.284;18.860;2023-09-18T02:07:20;11.60;;;9.20;;
62056;SDS011;48016;50.284;18.860;2023-09-18T02:09:47;10.60;;;9.00;;
62056;SDS011;48016;50.284;18.860;2023-09-18T02:12:14;11.70;;;9.10;;
62056;SDS011;48016;50.284;18.860;2023-09-18T02:14:44;11.70;;;9.00;;
62056;SDS011;48016;50.284;18.860;2023-09-18T02:17:11;10.30;;;9.20;;
62056;SDS011;48016;50.284;18.860;2023-09-18T02:19:38;12.90;;;9.60;;
62056;SDS011;48016;50.284;18.860;2023-09-18T02:22:05;12.00;;;10.00;;
62056;SDS011;48016;50.284;18.860;2023-09-18T02:24:32;11.20;;;9.50;;
62056;SDS011;48016;50.284;18.860;2023-09-18T02:26:59;11.90;;;9.60;;
62056;SDS011;48016;50.284;18.860;2023-09-18T02:29:26;11.60;;;9.10;;
62056;SDS011;48016;50.284;18.860;2023-09-18T02:31:52;12.10;;;9.60;;
62056;SDS011;48016;50.284;18.860;2023-09-18T02:34:19;13.50;;;9.90;;
62056;SDS011;48016;50.284;18.860;2023-09-18T02:36:46;11.60;;;9.00;;
62056;SDS011;48016;50.284;18.860;2023-09-18T02:39:13;12.10;;;10.00;;
62056;SDS011;48016;50.284;18.860;2023-09-18T02:41:40;11.20;;;9.40;;
62056;SDS011;48016;50.284;18.860;2023-09-18T02:44:06;13.20;;;9.80;;
62056;SDS011;48016;50.284;18.860;2023-09-18T02:46:33;13.20;;;9.60;;
62056;SDS011;48016;50.284;18.860;2023-09-18T02:49:00;11.90;;;9.30;;
62056;SDS011;48016;50.284;18.860;2023-09-18T02:51:26;11.60;;;9.70;;
62056;SDS011;48016;50.284;18.860;2023-09-18T02:53:53;11.10;;;9.40;;
62056;SDS011;48016;50.284;18.860;2023-09-18T02:56:20;11.30;;;9.50;;
62056;SDS011;48016;50.284;18.860;2023-09-18T02:58:46;10.90;;;9.00;;
62056;SDS011;48016;50.284;18.860;2023-09-18T03:01:13;10.60;;;9.10;;
62056;SDS011;48016;50.284;18.860;2023-09-18T03:03:40;11.20;;;9.60;;
62056;SDS011;48016;50.284;18.860;2023-09-18T03:06:08;11.50;;;9.90;;
62056;SDS011;48016;50.284;18.860;2023-09-18T03:08:34;12.60;;;10.90;;
62056;SDS011;48016;50.284;18.860;2023-09-18T03:11:01;12.50;;;10.10;;
62056;SDS011;48016;50.284;18.860;2023-09-18T03:13:29;12.40;;;10.90;;
62056;SDS011;48016;50.284;18.860;2023-09-18T03:15:58;13.30;;;11.00;;
62056;SDS011;48016;50.284;18.860;2023-09-18T03:18:24;13.60;;;11.00;;
62056;SDS011;48016;50.284;18.860;2023-09-18T03:20:51;13.00;;;11.60;;
62056;SDS011;48016;50.284;18.860;2023-09-18T03:23:18;13.40;;;10.70;;
62056;SDS011;48016;50.284;18.860;2023-09-18T03:25:45;12.60;;;10.60;;
62056;SDS011;48016;50.284;18.860;2023-09-18T03:28:11;12.60;;;11.30;;
62056;SDS011;48016;50.284;18.860;2023-09-18T03:30:38;13.90;;;11.40;;
62056;SDS011;48016;50.284;18.860;2023-09-18T03:33:04;14.00;;;11.10;;
62056;SDS011;48016;50.284;18.860;2023-09-18T03:35:31;13.10;;;11.30;;
62056;SDS011;48016;50.284;18.860;2023-09-18T03:37:58;14.00;;;11.40;;
62056;SDS011;48016;50.284;18.860;2023-09-18T03:40:25;13.90;;;11.70;;
62056;SDS011;48016;50.284;18.860;2023-09-18T03:42:52;14.00;;;11.40;;
62056;SDS011;48016;50.284;18.860;2023-09-18T03:45:20;14.10;;;12.30;;
62056;SDS011;48016;50.284;18.860;2023-09-18T03:47:47;12.80;;;11.40;;
62056;SDS011;48016;50.284;18.860;2023-09-18T03:50:16;13.30;;;11.80;;
62056;SDS011;48016;50.284;18.860;2023-09-18T03:52:43;15.90;;;11.70;;
62056;SDS011;48016;50.284;18.860;2023-09-18T03:55:09;14.00;;;11.80;;
62056;SDS011;48016;50.284;18.860;2023-09-18T03:57:38;13.50;;;11.40;;
62056;SDS011;48016;50.284;18.860;2023-09-18T04:00:06;14.40;;;12.30;;
62056;SDS011;48016;50.284;18.860;2023-09-18T04:02:37;14.90;;;12.70;;
62056;SDS011;48016;50.284;18.860;2023-09-18T04:05:04;14.50;;;12.80;;
62056;SDS011;48016;50.284;18.860;2023-09-18T04:07:31;13.60;;;12.20;;
62056;SDS011;48016;50.284;18.860;2023-09-18T04:09:58;13.50;;;11.60;;
62056;SDS011;48016;50.284;18.860;2023-09-18T04:12:25;15.90;;;13.20;;
62056;SDS011;48016;50.284;18.860;2023-09-18T04:14:51;14.80;;;12.70;;
62056;SDS011;48016;50.284;18.860;2023-09-18T04:17:18;14.00;;;12.60;;
62056;SDS011;48016;50.284;18.860;2023-09-18T04:19:47;14.10;;;12.40;;
62056;SDS011;48016;50.284;18.860;2023-09-18T04:27:08;14.20;;;12.70;;
62056;SDS011;48016;50.284;18.860;2023-09-18T04:29:34;14.80;;;13.30;;
62056;SDS011;48016;50.284;18.860;2023-09-18T04:32:02;15.10;;;12.60;;
62056;SDS011;48016;50.284;18.860;2023-09-18T04:34:30;14.40;;;12.90;;
62056;SDS011;48016;50.284;18.860;2023-09-18T04:36:57;15.40;;;12.90;;
62056;SDS011;48016;50.284;18.860;2023-09-18T04:39:23;15.00;;;12.70;;
62056;SDS011;48016;50.284;18.860;2023-09-18T04:41:50;15.70;;;14.10;;
62056;SDS011;48016;50.284;18.860;2023-09-18T04:44:17;15.90;;;13.30;;
62056;SDS011;48016;50.284;18.860;2023-09-18T04:46:43;14.70;;;12.50;;
62056;SDS011;48016;50.284;18.860;2023-09-18T04:49:10;15.00;;;13.50;;
62056;SDS011;48016;50.284;18.860;2023-09-18T04:51:38;16.10;;;13.50;;
62056;SDS011;48016;50.284;18.860;2023-09-18T04:54:08;16.50;;;13.50;;
62056;SDS011;48016;50.284;18.860;2023-09-18T04:56:34;16.40;;;13.50;;
62056;SDS011;48016;50.284;18.860;2023-09-18T04:59:02;18.00;;;13.60;;
62056;SDS011;48016;50.284;18.860;2023-09-18T05:01:29;16.50;;;13.50;;
62056;SDS011;48016;50.284;18.860;2023-09-18T05:03:56;15.40;;;12.90;;
62056;SDS011;48016;50.284;18.860;2023-09-18T05:06:23;16.40;;;14.30;;
62056;SDS011;48016;50.284;18.860;2023-09-18T05:08:50;17.00;;;14.00;;
62056;SDS011;48016;50.284;18.860;2023-09-18T05:11:18;17.10;;;13.80;;
62056;SDS011;48016;50.284;18.860;2023-09-18T05:13:45;15.10;;;13.40;;
62056;SDS011;48016;50.284;18.860;2023-09-18T05:16:12;18.70;;;13.70;;
62056;SDS011;48016;50.284;18.860;2023-09-18T05:18:39;16.20;;;12.80;;
62056;SDS011;48016;50.284;18.860;2023-09-18T05:21:08;15.50;;;12.80;;
62056;SDS011;48016;50.284;18.860;2023-09-18T05:23:36;14.40;;;12.70;;
62056;SDS011;48016;50.284;18.860;2023-09-18T05:26:03;14.80;;;13.00;;
62056;SDS011;48016;50.284;18.860;2023-09-18T05:28:29;15.30;;;12.10;;
62056;SDS011;48016;50.284;18.860;2023-09-18T05:30:56;15.40;;;13.20;;
62056;SDS011;48016;50.284;18.860;2023-09-18T05:33:23;15.40;;;13.40;;
62056;SDS011;48016;50.284;18.860;2023-09-18T05:35:49;15.40;;;12.80;;
62056;SDS011;48016;50.284;18.860;2023-09-18T05:38:17;16.10;;;14.10;;
62056;SDS011;48016;50.284;18.860;2023-09-18T05:40:44;14.20;;;12.60;;
62056;SDS011;48016;50.284;18.860;2023-09-18T05:43:11;13.90;;;12.40;;
62056;SDS011;48016;50.284;18.860;2023-09-18T05:45:38;14.20;;;12.70;;
62056;SDS011;48016;50.284;18.860;2023-09-18T05:48:06;13.60;;;12.10;;
62056;SDS011;48016;50.284;18.860;2023-09-18T05:53:02;13.40;;;12.00;;
62056;SDS011;48016;50.284;18.860;2023-09-18T05:55:32;13.40;;;11.10;;
62056;SDS011;48016;50.284;18.860;2023-09-18T05:57:59;14.00;;;12.00;;
62056;SDS011;48016;50.284;18.860;2023-09-18T06:00:27;12.70;;;11.30;;
62056;SDS011;48016;50.284;18.860;2023-09-18T06:02:57;13.50;;;12.00;;
62056;SDS011;48016;50.284;18.860;2023-09-18T06:05:23;12.70;;;11.40;;
62056;SDS011;48016;50.284;18.860;2023-09-18T06:07:51;13.50;;;12.10;;
62056;SDS011;48016;50.284;18.860;2023-09-18T06:10:17;14.80;;;12.40;;
62056;SDS011;48016;50.284;18.860;2023-09-18T06:12:44;12.70;;;11.40;;
62056;SDS011;48016;50.284;18.860;2023-09-18T06:15:11;13.70;;;11.40;;
62056;SDS011;48016;50.284;18.860;2023-09-18T06:17:39;13.90;;;12.10;;
62056;SDS011;48016;50.284;18.860;2023-09-18T06:20:07;13.60;;;11.70;;
62056;SDS011;48016;50.284;18.860;2023-09-18T06:22:39;13.90;;;11.10;;
62056;SDS011;48016;50.284;18.860;2023-09-18T06:25:07;12.40;;;11.10;;
62056;SDS011;48016;50.284;18.860;2023-09-18T06:27:36;13.00;;;11.70;;
62056;SDS011;48016;50.284;18.860;2023-09-18T06:30:04;12.80;;;11.60;;
62056;SDS011;48016;50.284;18.860;2023-09-18T06:32:32;15.10;;;11.60;;
62056;SDS011;48016;50.284;18.860;2023-09-18T06:34:59;13.50;;;11.90;;
62056;SDS011;48016;50.284;18.860;2023-09-18T06:37:26;12.60;;;11.30;;
62056;SDS011;48016;50.284;18.860;2023-09-18T06:39:53;13.30;;;11.90;;
62056;SDS011;48016;50.284;18.860;2023-09-18T06:42:20;12.20;;;10.80;;
62056;SDS011;48016;50.284;18.860;2023-09-18T06:44:46;11.90;;;10.70;;
62056;SDS011;48016;50.284;18.860;2023-09-18T06:47:13;14.10;;;11.30;;
62056;SDS011;48016;50.284;18.860;2023-09-18T06:49:41;12.60;;;11.40;;
62056;SDS011;48016;50.284;18.860;2023-09-18T06:52:09;14.00;;;11.50;;
62056;SDS011;48016;50.284;18.860;2023-09-18T06:54:36;12.10;;;10.70;;
62056;SDS011;48016;50.284;18.860;2023-09-18T06:57:03;11.80;;;10.50;;
62056;SDS011;48016;50.284;18.860;2023-09-18T07:01:56;11.90;;;10.70;;
62056;SDS011;48016;50.284;18.860;2023-09-18T07:04:22;13.20;;;10.20;;
62056;SDS011;48016;50.284;18.860;2023-09-18T07:06:49;11.80;;;10.60;;
62056;SDS011;48016;50.284;18.860;2023-09-18T07:09:16;11.50;;;10.40;;
62056;SDS011;48016;50.284;18.860;2023-09-18T07:11:44;12.30;;;10.90;;
62056;SDS011;48016;50.284;18.860;2023-09-18T07:14:11;13.50;;;10.90;;
62056;SDS011;48016;50.284;18.860;2023-09-18T07:16:37;11.50;;;10.40;;
62056;SDS011;48016;50.284;18.860;2023-09-18T07:19:04;12.40;;;10.30;;
62056;SDS011;48016;50.284;18.860;2023-09-18T07:21:31;11.80;;;10.60;;
62056;SDS011;48016;50.284;18.860;2023-09-18T07:23:57;12.80;;;11.50;;
62056;SDS011;48016;50.284;18.860;2023-09-18T07:26:24;12.70;;;10.00;;
62056;SDS011;48016;50.284;18.860;2023-09-18T07:28:51;11.80;;;10.10;;
62056;SDS011;48016;50.284;18.860;2023-09-18T07:31:17;12.10;;;10.70;;
62056;SDS011;48016;50.284;18.860;2023-09-18T07:33:44;12.00;;;10.60;;
62056;SDS011;48016;50.284;18.860;2023-09-18T07:36:11;11.70;;;10.40;;
62056;SDS011;48016;50.284;18.860;2023-09-18T07:38:37;11.70;;;10.60;;
62056;SDS011;48016;50.284;18.860;2023-09-18T07:41:04;11.40;;;10.30;;
62056;SDS011;48016;50.284;18.860;2023-09-18T07:43:30;12.00;;;10.90;;
62056;SDS011;48016;50.284;18.860;2023-09-18T07:45:57;12.20;;;11.00;;
62056;SDS011;48016;50.284;18.860;2023-09-18T07:48:26;11.70;;;10.50;;
62056;SDS011;48016;50.284;18.860;2023-09-18T07:50:52;12.40;;;10.00;;
62056;SDS011;48016;50.284;18.860;2023-09-18T07:53:21;12.20;;;10.90;;
62056;SDS011;48016;50.284;18.860;2023-09-18T07:55:54;13.90;;;10.50;;
62056;SDS011;48016;50.284;18.860;2023-09-18T07:58:22;12.50;;;10.80;;
62056;SDS011;48016;50.284;18.860;2023-09-18T08:00:50;12.00;;;10.80;;
62056;SDS011;48016;50.284;18.860;2023-09-18T08:03:20;12.30;;;11.20;;
62056;SDS011;48016;50.284;18.860;2023-09-18T08:05:54;11.50;;;10.40;;
62056;SDS011;48016;50.284;18.860;2023-09-18T08:08:21;11.80;;;10.70;;
62056;SDS011;48016;50.284;18.860;2023-09-18T08:10:50;12.80;;;11.20;;
62056;SDS011;48016;50.284;18.860;2023-09-18T08:13:17;12.30;;;11.10;;
62056;SDS011;48016;50.284;18.860;2023-09-18T08:15:46;11.80;;;10.60;;
62056;SDS011;48016;50.284;18.860;2023-09-18T08:18:12;12.50;;;11.20;;
62056;SDS011;48016;50.284;18.860;2023-09-18T08:20:42;12.00;;;10.90;;
62056;SDS011;48016;50.284;18.860;2023-09-18T08:23:12;11.90;;;10.80;;
62056;SDS011;48016;50.284;18.860;2023-09-18T08:25:39;15.40;;;11.10;;
62056;SDS011;48016;50.284;18.860;2023-09-18T08:28:07;13.10;;;11.70;;
62056;SDS011;48016;50.284;18.860;2023-09-18T08:30:33;12.20;;;11.10;;
62056;SDS011;48016;50.284;18.860;2023-09-18T08:33:00;13.60;;;12.30;;
62056;SDS011;48016;50.284;18.860;2023-09-18T08:35:27;12.70;;;11.40;;
62056;SDS011;48016;50.284;18.860;2023-09-18T08:37:55;13.30;;;11.70;;
62056;SDS011;48016;50.284;18.860;2023-09-18T08:40:23;12.80;;;11.60;;
62056;SDS011;48016;50.284;18.860;2023-09-18T08:42:50;12.00;;;10.80;;
62056;SDS011;48016;50.284;18.860;2023-09-18T08:45:31;14.10;;;11.50;;
62056;SDS011;48016;50.284;18.860;2023-09-18T08:48:04;13.90;;;11.80;;
62056;SDS011;48016;50.284;18.860;2023-09-18T08:50:32;14.00;;;12.20;;
62056;SDS011;48016;50.284;18.860;2023-09-18T08:52:59;14.00;;;12.10;;
62056;SDS011;48016;50.284;18.860;2023-09-18T08:55:26;14.30;;;12.90;;
62056;SDS011;48016;50.284;18.860;2023-09-18T08:57:53;13.70;;;12.40;;
62056;SDS011;48016;50.284;18.860;2023-09-18T09:00:22;13.20;;;11.80;;
62056;SDS011;48016;50.284;18.860;2023-09-18T09:02:48;14.80;;;11.60;;
62056;SDS011;48016;50.284;18.860;2023-09-18T09:05:17;13.20;;;11.60;;
62056;SDS011;48016;50.284;18.860;2023-09-18T09:07:44;12.80;;;11.50;;
62056;SDS011;48016;50.284;18.860;2023-09-18T09:10:10;13.10;;;11.70;;
62056;SDS011;48016;50.284;18.860;2023-09-18T09:12:47;14.10;;;11.90;;
62056;SDS011;48016;50.284;18.860;2023-09-18T09:15:15;15.80;;;11.60;;
62056;SDS011;48016;50.284;18.860;2023-09-18T09:17:43;13.20;;;11.90;;
62056;SDS011;48016;50.284;18.860;2023-09-18T09:20:11;13.20;;;11.90;;
62056;SDS011;48016;50.284;18.860;2023-09-18T09:22:40;13.70;;;12.20;;
62056;SDS011;48016;50.284;18.860;2023-09-18T09:27:47;13.50;;;12.20;;
62056;SDS011;48016;50.284;18.860;2023-09-18T09:30:18;15.00;;;11.60;;
62056;SDS011;48016;50.284;18.860;2023-09-18T09:32:53;13.80;;;12.30;;
62056;SDS011;48016;50.284;18.860;2023-09-18T09:35:28;16.10;;;12.40;;
62056;SDS011;48016;50.284;18.860;2023-09-18T09:38:01;12.80;;;11.60;;
62056;SDS011;48016;50.284;18.860;2023-09-18T09:40:34;14.20;;;12.80;;
62056;SDS011;48016;50.284;18.860;2023-09-18T09:43:04;14.50;;;13.10;;
62056;SDS011;48016;50.284;18.860;2023-09-18T09:45:34;15.10;;;13.00;;
62056;SDS011;48016;50.284;18.860;2023-09-18T09:48:05;14.10;;;12.60;;
62056;SDS011;48016;50.284;18.860;2023-09-18T09:50:34;13.50;;;12.10;;
62056;SDS011;48016;50.284;18.860;2023-09-18T09:53:14;13.80;;;12.50;;
62056;SDS011;48016;50.284;18.860;2023-09-18T09:58:08;14.20;;;12.80;;
62056;SDS011;48016;50.284;18.860;2023-09-18T10:00:46;14.60;;;11.90;;
62056;SDS011;48016;50.284;18.860;2023-09-18T10:03:18;17.10;;;12.20;;
62056;SDS011;48016;50.284;18.860;2023-09-18T10:05:52;13.90;;;11.70;;
62056;SDS011;48016;50.284;18.860;2023-09-18T10:08:23;13.90;;;12.30;;
62056;SDS011;48016;50.284;18.860;2023-09-18T10:10:53;12.50;;;11.20;;
62056;SDS011;48016;50.284;18.860;2023-09-18T10:13:23;14.80;;;12.20;;
62056;SDS011;48016;50.284;18.860;2023-09-18T10:15:51;13.30;;;11.90;;
62056;SDS011;48016;50.284;18.860;2023-09-18T10:18:25;13.10;;;11.70;;
62056;SDS011;48016;50.284;18.860;2023-09-18T10:21:02;12.20;;;11.00;;
62056;SDS011;48016;50.284;18.860;2023-09-18T10:23:40;13.00;;;11.20;;
62056;SDS011;48016;50.284;18.860;2023-09-18T10:26:29;12.60;;;11.20;;
62056;SDS011;48016;50.284;18.860;2023-09-18T10:28:59;11.80;;;10.40;;
62056;SDS011;48016;50.284;18.860;2023-09-18T10:31:29;11.50;;;10.30;;
62056;SDS011;48016;50.284;18.860;2023-09-18T10:34:00;13.00;;;11.70;;
62056;SDS011;48016;50.284;18.860;2023-09-18T10:36:29;16.20;;;10.90;;
62056;SDS011;48016;50.284;18.860;2023-09-18T10:38:57;12.70;;;11.50;;
62056;SDS011;48016;50.284;18.860;2023-09-18T10:41:26;13.80;;;11.20;;
62056;SDS011;48016;50.284;18.860;2023-09-18T10:43:53;11.70;;;10.50;;
62056;SDS011;48016;50.284;18.860;2023-09-18T10:46:24;12.40;;;11.20;;
62056;SDS011;48016;50.284;18.860;2023-09-18T10:48:53;15.30;;;11.70;;
62056;SDS011;48016;50.284;18.860;2023-09-18T10:51:21;12.60;;;11.40;;
62056;SDS011;48016;50.284;18.860;2023-09-18T10:53:48;13.30;;;11.80;;
62056;SDS011;48016;50.284;18.860;2023-09-18T10:56:15;12.00;;;10.70;;
62056;SDS011;48016;50.284;18.860;2023-09-18T10:58:43;12.60;;;11.40;;
62056;SDS011;48016;50.284;18.860;2023-09-18T11:01:11;12.70;;;10.90;;
62056;SDS011;48016;50.284;18.860;2023-09-18T11:03:38;13.50;;;11.60;;
62056;SDS011;48016;50.284;18.860;2023-09-18T11:06:06;11.30;;;10.30;;
62056;SDS011;48016;50.284;18.860;2023-09-18T11:08:43;12.30;;;11.00;;
62056;SDS011;48016;50.284;18.860;2023-09-18T11:11:12;13.60;;;11.50;;
62056;SDS011;48016;50.284;18.860;2023-09-18T11:13:47;12.40;;;11.20;;
62056;SDS011;48016;50.284;18.860;2023-09-18T11:16:37;12.70;;;11.50;;
62056;SDS011;48016;50.284;18.860;2023-09-18T11:19:07;11.90;;;9.90;;
62056;SDS011;48016;50.284;18.860;2023-09-18T11:21:37;14.10;;;11.30;;
62056;SDS011;48016;50.284;18.860;2023-09-18T11:24:08;11.70;;;10.50;;
62056;SDS011;48016;50.284;18.860;2023-09-18T11:26:43;11.50;;;10.40;;
62056;SDS011;48016;50.284;18.860;2023-09-18T11:29:13;11.60;;;10.40;;
62056;SDS011;48016;50.284;18.860;2023-09-18T11:31:51;12.90;;;9.90;;
62056;SDS011;48016;50.284;18.860;2023-09-18T11:34:24;11.60;;;10.20;;
62056;SDS011;48016;50.284;18.860;2023-09-18T11:36:55;12.30;;;9.00;;
62056;SDS011;48016;50.284;18.860;2023-09-18T11:39:36;12.10;;;9.30;;
62056;SDS011;48016;50.284;18.860;2023-09-18T11:42:08;10.70;;;9.60;;
62056;SDS011;48016;50.284;18.860;2023-09-18T11:44:41;10.10;;;9.00;;
62056;SDS011;48016;50.284;18.860;2023-09-18T11:47:12;11.50;;;10.10;;
62056;SDS011;48016;50.284;18.860;2023-09-18T11:52:22;11.60;;;10.40;;
62056;SDS011;48016;50.284;18.860;2023-09-18T11:54:53;11.30;;;9.60;;
62056;SDS011;48016;50.284;18.860;2023-09-18T11:57:23;9.80;;;8.80;;
62056;SDS011;48016;50.284;18.860;2023-09-18T11:59:50;11.00;;;9.70;;
62056;SDS011;48016;50.284;18.860;2023-09-18T12:02:27;10.70;;;9.60;;
62056;SDS011;48016;50.284;18.860;2023-09-18T12:05:11;10.10;;;9.10;;
62056;SDS011;48016;50.284;18.860;2023-09-18T12:07:40;11.10;;;9.90;;
62056;SDS011;48016;50.284;18.860;2023-09-18T12:10:12;10.80;;;9.70;;
62056;SDS011;48016;50.284;18.860;2023-09-18T12:12:41;10.00;;;9.00;;
62056;SDS011;48016;50.284;18.860;2023-09-18T12:15:11;9.30;;;8.10;;
62056;SDS011;48016;50.284;18.860;2023-09-18T12:17:38;12.20;;;9.00;;
62056;SDS011;48016;50.284;18.860;2023-09-18T12:20:05;11.70;;;8.60;;
62056;SDS011;48016;50.284;18.860;2023-09-18T12:22:32;9.30;;;8.40;;
62056;SDS011;48016;50.284;18.860;2023-09-18T12:25:08;10.90;;;8.60;;
62056;SDS011;48016;50.284;18.860;2023-09-18T12:27:40;9.70;;;8.70;;
62056;SDS011;48016;50.284;18.860;2023-09-18T12:30:08;11.70;;;9.00;;
62056;SDS011;48016;50.284;18.860;2023-09-18T12:32:38;9.20;;;8.20;;
62056;SDS011;48016;50.284;18.860;2023-09-18T12:35:06;10.60;;;8.80;;
62056;SDS011;48016;50.284;18.860;2023-09-18T12:37:40;9.70;;;8.30;;
62056;SDS011;48016;50.284;18.860;2023-09-18T12:40:21;9.60;;;8.60;;
62056;SDS011;48016;50.284;18.860;2023-09-18T12:42:51;8.70;;;7.90;;
62056;SDS011;48016;50.284;18.860;2023-09-18T12:45:21;9.80;;;8.10;;
62056;SDS011;48016;50.284;18.860;2023-09-18T12:47:49;9.00;;;8.10;;
62056;SDS011;48016;50.284;18.860;2023-09-18T12:50:17;8.40;;;7.60;;
62056;SDS011;48016;50.284;18.860;2023-09-18T12:52:44;9.40;;;7.90;;
62056;SDS011;48016;50.284;18.860;2023-09-18T12:58:11;9.60;;;7.90;;
62056;SDS011;48016;50.284;18.860;2023-09-18T13:00:47;8.70;;;7.80;;
62056;SDS011;48016;50.284;18.860;2023-09-18T13:03:18;10.40;;;7.50;;
62056;SDS011;48016;50.284;18.860;2023-09-18T13:05:45;9.30;;;7.60;;
62056;SDS011;48016;50.284;18.860;2023-09-18T13:08:13;9.60;;;7.90;;
62056;SDS011;48016;50.284;18.860;2023-09-18T13:10:47;9.70;;;8.00;;
62056;SDS011;48016;50.284;18.860;2023-09-18T13:13:19;8.70;;;7.60;;
62056;SDS011;48016;50.284;18.860;2023-09-18T13:15:48;9.20;;;8.10;;
62056;SDS011;48016;50.284;18.860;2023-09-18T13:18:16;7.80;;;7.00;;
62056;SDS011;48016;50.284;18.860;2023-09-18T13:20:43;7.90;;;7.10;;
62056;SDS011;48016;50.284;18.860;2023-09-18T13:23:11;10.70;;;8.10;;
62056;SDS011;48016;50.284;18.860;2023-09-18T13:25:39;10.50;;;7.90;;
62056;SDS011;48016;50.284;18.860;2023-09-18T13:28:10;8.60;;;7.30;;
62056;SDS011;48016;50.284;18.860;2023-09-18T13:30:39;10.30;;;7.60;;
62056;SDS011;48016;50.284;18.860;2023-09-18T13:33:11;8.70;;;7.30;;
62056;SDS011;48016;50.284;18.860;2023-09-18T13:35:40;8.80;;;7.90;;
62056;SDS011;48016;50.284;18.860;2023-09-18T13:38:09;9.50;;;7.80;;
62056;SDS011;48016;50.284;18.860;2023-09-18T13:40:41;8.40;;;7.50;;
62056;SDS011;48016;50.284;18.860;2023-09-18T13:43:09;9.00;;;7.70;;
62056;SDS011;48016;50.284;18.860;2023-09-18T13:45:36;8.40;;;7.60;;
62056;SDS011;48016;50.284;18.860;2023-09-18T13:48:04;9.50;;;7.60;;
62056;SDS011;48016;50.284;18.860;2023-09-18T13:50:32;8.20;;;7.30;;
62056;SDS011;48016;50.284;18.860;2023-09-18T13:52:59;9.00;;;7.80;;
62056;SDS011;48016;50.284;18.860;2023-09-18T13:55:27;9.60;;;7.50;;
62056;SDS011;48016;50.284;18.860;2023-09-18T13:57:53;7.80;;;7.00;;
62056;SDS011;48016;50.284;18.860;2023-09-18T14:00:21;8.10;;;7.30;;
62056;SDS011;48016;50.284;18.860;2023-09-18T14:02:48;9.30;;;7.40;;
62056;SDS011;48016;50.284;18.860;2023-09-18T14:05:15;7.80;;;7.00;;
62056;SDS011;48016;50.284;18.860;2023-09-18T14:07:42;9.30;;;7.20;;
62056;SDS011;48016;50.284;18.860;2023-09-18T14:12:37;8.90;;;7.50;;
62056;SDS011;48016;50.284;18.860;2023-09-18T14:15:05;8.00;;;7.20;;
62056;SDS011;48016;50.284;18.860;2023-09-18T14:17:37;8.10;;;6.90;;
62056;SDS011;48016;50.284;18.860;2023-09-18T14:20:03;9.20;;;7.00;;
62056;SDS011;48016;50.284;18.860;2023-09-18T14:22:35;9.90;;;7.50;;
62056;SDS011;48016;50.284;18.860;2023-09-18T14:25:02;8.20;;;7.40;;
62056;SDS011;48016;50.284;18.860;2023-09-18T14:27:32;9.40;;;7.10;;
62056;SDS011;48016;50.284;18.860;2023-09-18T14:29:59;8.50;;;7.60;;
62056;SDS011;48016;50.284;18.860;2023-09-18T14:32:28;8.20;;;7.40;;
62056;SDS011;48016;50.284;18.860;2023-09-18T14:34:54;9.00;;;7.40;;
62056;SDS011;48016;50.284;18.860;2023-09-18T14:37:21;7.30;;;6.60;;
62056;SDS011;48016;50.284;18.860;2023-09-18T14:39:47;8.10;;;7.20;;
62056;SDS011;48016;50.284;18.860;2023-09-18T14:42:14;8.30;;;6.60;;
62056;SDS011;48016;50.284;18.860;2023-09-18T14:44:41;8.70;;;6.90;;
62056;SDS011;48016;50.284;18.860;2023-09-18T14:47:11;8.90;;;7.00;;
62056;SDS011;48016;50.284;18.860;2023-09-18T14:49:38;8.10;;;7.10;;
62056;SDS011;48016;50.284;18.860;2023-09-18T14:52:13;8.50;;;7.70;;